createdAt,value
2022-09-18T00:04:15.233Z,98741.16
2022-09-18T00:18:10.818Z,98743.97
2022-09-18T00:54:39.846Z,98748.13
2022-09-18T01:01:58.568Z,98743.47
2022-09-18T01:05:41.445Z,98745.91
2022-09-18T01:23:00.195Z,98754.09
2022-09-18T01:35:09.820Z,98766.59
2022-09-18T02:05:43.297Z,98783.75
2022-09-18T02:18:59.153Z,98777.44
2022-09-18T02:40:24.509Z,98775.94
2022-09-18T02:43:00.840Z,98778.69
2022-09-18T02:43:21.215Z,98787.16
2022-09-18T02:46:50.696Z,98788.81
2022-09-18T02:50:09.470Z,98793.91
2022-09-18T03:37:14.387Z,98805.72
2022-09-18T03:45:49.468Z,98796.47
2022-09-18T03:58:14.322Z,98788.28
2022-09-18T04:15:39.163Z,98778.03
2022-09-18T04:19:17.052Z,98788.78
2022-09-18T04:30:55.272Z,98790.88
2022-09-18T04:42:47.900Z,98782.78
2022-09-18T04:56:06.649Z,98778.63
2022-09-18T05:03:09.875Z,98772.13
2022-09-18T05:07:16.146Z,98780.84
2022-09-18T05:10:12.277Z,98769.84
2022-09-18T05:12:59.492Z,98772.38
2022-09-18T05:15:33.198Z,98770.72
2022-09-18T05:18:27.072Z,98757.06
2022-09-18T05:25:45.355Z,98764.41
2022-09-18T05:29:29.911Z,98758.47
2022-09-18T05:35:37.733Z,98756.84
2022-09-18T05:38:30.893Z,98749.97
2022-09-18T05:42:13.720Z,98743.09
2022-09-18T06:08:32.739Z,98732.47
2022-09-18T06:11:49.558Z,98731.81
2022-09-18T06:15:16.602Z,98734.34
2022-09-18T06:18:24.302Z,98739.06
2022-09-18T06:20:58.520Z,98731.84
2022-09-18T06:24:46.973Z,98724.78
2022-09-18T06:31:00.806Z,98732.31
2022-09-18T06:34:55.850Z,98732.50
2022-09-18T06:38:17.754Z,98732.59
2022-09-18T06:41:13.672Z,98733.44
2022-09-18T06:44:31.028Z,98741.03
2022-09-18T06:51:34.462Z,98718.91
2022-09-18T07:12:12.460Z,98715.84
2022-09-18T07:23:08.564Z,98701.69
2022-09-18T07:27:10.740Z,98691.28
2022-09-18T07:30:15.369Z,98693.91
2022-09-18T07:33:10.268Z,98684.28
2022-09-18T07:39:47.534Z,98675.41
2022-09-18T07:42:42.072Z,98675.78
2022-09-18T07:45:41.170Z,98673.16
2022-09-18T07:48:47.847Z,98662.41
2022-09-18T07:51:31.176Z,98663.69
2022-09-18T07:54:00.841Z,98665.91
2022-09-18T07:57:54.257Z,98651.00
2022-09-18T08:00:35.233Z,98646.59
2022-09-18T08:03:31.149Z,98635.09
2022-09-18T08:06:09.981Z,98634.88
2022-09-18T08:08:46.795Z,98623.56
2022-09-18T08:12:05.930Z,98619.63
2022-09-18T08:14:52.923Z,98610.72
2022-09-18T08:18:54.606Z,98612.81
2022-09-18T08:21:58.618Z,98611.19
2022-09-18T08:24:34.883Z,98595.41
2022-09-18T08:29:56.112Z,98595.44
2022-09-18T08:32:26.332Z,98591.91
2022-09-18T08:35:05.780Z,98586.19
2022-09-18T08:37:34.559Z,98578.94
2022-09-18T08:41:15.333Z,98592.28
2022-09-18T08:44:02.759Z,98583.25
2022-09-18T08:46:50.867Z,98578.72
2022-09-18T08:53:34.874Z,98587.34
2022-09-18T08:56:25.966Z,98578.78
2022-09-18T08:59:27.645Z,98584.28
2022-09-18T09:02:25.026Z,98569.38
2022-09-18T09:04:59.537Z,98568.63
2022-09-18T09:08:09.474Z,98557.94
2022-09-18T09:15:21.724Z,98557.75
2022-09-18T09:18:13.842Z,98564.25
2022-09-18T09:21:26.560Z,98560.63
2022-09-18T09:24:21.438Z,98552.41
2022-09-18T09:27:39.516Z,98551.06
2022-09-18T09:30:19.452Z,98546.38
2022-09-18T09:33:12.204Z,98554.47
2022-09-18T09:36:13.247Z,98546.00
2022-09-18T09:39:09.478Z,98533.88
2022-09-18T09:41:50.350Z,98547.75
2022-09-18T09:44:33.781Z,98541.94
2022-09-18T09:47:43.221Z,98540.13
2022-09-18T09:50:34.233Z,98542.69
2022-09-18T09:53:32.107Z,98530.72
2022-09-18T09:56:29.155Z,98529.16
2022-09-18T09:59:23.569Z,98531.03
2022-09-18T10:02:42.094Z,98517.22
2022-09-18T10:05:29.723Z,98515.66
2022-09-18T10:08:20.530Z,98520.94
2022-09-18T10:10:58.737Z,98534.75
2022-09-18T10:13:56.890Z,98523.53
2022-09-18T10:16:40.899Z,98502.88
2022-09-18T10:19:25.020Z,98505.25
2022-09-18T10:21:56.156Z,98512.31
2022-09-18T10:24:34.690Z,98501.09
2022-09-18T10:27:31.580Z,98495.03
2022-09-18T10:30:15.659Z,98502.78
2022-09-18T10:34:05.855Z,98481.09
2022-09-18T10:36:43.675Z,98476.88
2022-09-18T10:39:49.194Z,98486.44
2022-09-18T10:45:54.984Z,98472.72
2022-09-18T10:48:51.235Z,98470.16
2022-09-18T10:51:33.537Z,98471.91
2022-09-18T10:54:19.721Z,98474.47
2022-09-18T10:58:00.912Z,98469.25
2022-09-18T11:01:33.811Z,98467.59
2022-09-18T11:09:07.660Z,98454.81
2022-09-18T11:11:52.297Z,98448.78
2022-09-18T11:14:50.877Z,98439.31
2022-09-18T11:17:59.803Z,98443.53
2022-09-18T11:20:45.938Z,98444.41
2022-09-18T11:23:38.174Z,98440.13
2022-09-18T11:26:27.301Z,98440.13
2022-09-18T11:29:19.130Z,98421.19
2022-09-18T11:32:21.572Z,98418.63
2022-09-18T11:35:17.658Z,98409.16
2022-09-18T11:38:08.331Z,98407.50
2022-09-18T11:40:51.709Z,98393.75
2022-09-18T11:43:33.323Z,98389.38
2022-09-18T11:51:02.205Z,98381.72
2022-09-18T11:54:01.855Z,98384.31
2022-09-18T11:57:17.789Z,98375.75
2022-09-18T12:00:07.762Z,98360.25
2022-09-18T12:03:18.581Z,98349.00
2022-09-18T12:06:10.480Z,98337.81
2022-09-18T12:09:20.802Z,98338.69
2022-09-18T12:12:32.394Z,98336.09
2022-09-18T12:15:45.359Z,98337.84
2022-09-18T12:18:33.353Z,98324.94
2022-09-18T12:21:17.350Z,98321.50
2022-09-18T12:23:48.742Z,98310.31
2022-09-18T12:26:35.039Z,98306.00
2022-09-18T12:30:26.565Z,98295.69
2022-09-18T12:34:08.566Z,98304.28
2022-09-18T12:38:14.860Z,98286.22
2022-09-18T12:41:49.462Z,98275.03
2022-09-18T12:49:47.523Z,98260.47
2022-09-18T12:53:10.324Z,98255.28
2022-09-18T12:56:15.620Z,98240.66
2022-09-18T12:59:48.510Z,98238.06
2022-09-18T13:03:17.929Z,98226.91
2022-09-18T13:06:00.825Z,98237.25
2022-09-18T13:09:09.118Z,98228.66
2022-09-18T13:11:42.125Z,98237.28
2022-09-18T13:14:29.657Z,98234.69
2022-09-18T13:17:07.664Z,98233.88
2022-09-18T13:19:54.881Z,98231.31
2022-09-18T13:22:41.691Z,98228.72
2022-09-18T13:25:43.866Z,98213.22
2022-09-18T13:28:18.584Z,98199.44
2022-09-18T13:30:49.851Z,98206.34
2022-09-18T13:33:26.412Z,98218.38
2022-09-18T13:35:59.175Z,98217.53
2022-09-18T13:38:30.215Z,98198.59
2022-09-18T13:41:00.958Z,98202.03
2022-09-18T13:43:29.221Z,98188.25
2022-09-18T13:46:03.484Z,98182.25
2022-09-18T13:48:35.710Z,98171.91
2022-09-18T13:51:29.541Z,98155.53
2022-09-18T13:54:24.794Z,98158.13
2022-09-18T13:57:10.778Z,98158.97
2022-09-18T14:00:10.187Z,98158.13
2022-09-18T14:02:44.607Z,98152.13
2022-09-18T14:05:34.483Z,98163.31
2022-09-18T14:08:19.558Z,98153.88
2022-09-18T14:11:05.001Z,98133.22
2022-09-18T14:13:58.709Z,98140.06
2022-09-18T14:16:46.433Z,98125.47
2022-09-18T14:19:43.490Z,98122.88
2022-09-18T14:22:43.296Z,98120.31
2022-09-18T14:25:13.312Z,98099.72
2022-09-18T14:27:57.265Z,98112.59
2022-09-18T14:30:30.550Z,98109.19
2022-09-18T14:33:07.126Z,98101.41
2022-09-18T14:35:53.420Z,98087.66
2022-09-18T14:38:35.322Z,98098.88
2022-09-18T14:41:23.560Z,98085.94
2022-09-18T14:44:04.502Z,98081.66
2022-09-18T14:46:33.530Z,98077.38
2022-09-18T14:49:31.503Z,98082.50
2022-09-18T14:52:04.249Z,98085.09
2022-09-18T14:54:40.862Z,98067.03
2022-09-18T14:57:14.325Z,98079.06
2022-09-18T14:59:43.141Z,98073.03
2022-09-18T15:02:23.705Z,98060.97
2022-09-18T15:04:58.844Z,98060.16
2022-09-18T15:07:30.398Z,98047.28
2022-09-18T15:10:16.803Z,98051.56
2022-09-18T15:13:09.343Z,98042.97
2022-09-18T15:15:40.282Z,98037.81
2022-09-18T15:18:27.812Z,98015.41
2022-09-18T15:21:01.962Z,98015.44
2022-09-18T15:23:40.140Z,98011.13
2022-09-18T15:26:13.845Z,98010.25
2022-09-18T15:28:47.551Z,98003.38
2022-09-18T15:31:20.475Z,97996.50
2022-09-18T15:33:51.075Z,97987.94
2022-09-18T15:36:42.598Z,97999.91
2022-09-18T15:39:38.218Z,97995.63
2022-09-18T15:42:41.830Z,97996.47
2022-09-18T15:45:38.019Z,98000.72
2022-09-18T15:48:40.332Z,97991.31
2022-09-18T15:51:27.033Z,97981.84
2022-09-18T15:54:13.755Z,97978.41
2022-09-18T15:57:01.377Z,97979.28
2022-09-18T15:59:37.197Z,97981.03
2022-09-18T16:02:32.856Z,97977.56
2022-09-18T16:05:20.989Z,97981.84
2022-09-18T16:08:19.369Z,97982.69
2022-09-18T16:10:51.356Z,97993.91
2022-09-18T16:13:22.068Z,97986.16
2022-09-18T16:16:14.956Z,97975.81
2022-09-18T16:19:20.159Z,97969.78
2022-09-18T16:21:48.742Z,97957.78
2022-09-18T16:24:30.842Z,97955.19
2022-09-18T16:27:07.617Z,97951.75
2022-09-18T16:29:40.091Z,97949.16
2022-09-18T16:32:14.515Z,97938.88
2022-09-18T16:34:47.190Z,97948.31
2022-09-18T16:37:17.831Z,97957.81
2022-09-18T16:39:52.800Z,97938.88
2022-09-18T16:42:24.828Z,97939.72
2022-09-18T16:44:57.294Z,97941.41
2022-09-18T16:47:27.003Z,97942.28
2022-09-18T16:49:55.791Z,97935.38
2022-09-18T16:52:23.965Z,97934.50
2022-09-18T16:54:52.752Z,97931.94
2022-09-18T16:57:27.889Z,97929.34
2022-09-18T17:00:04.768Z,97932.75
2022-09-18T17:02:34.210Z,97931.91
2022-09-18T17:05:02.651Z,97922.44
2022-09-18T17:07:32.156Z,97915.56
2022-09-18T17:10:37.398Z,97913.84
2022-09-18T17:13:08.786Z,97913.84
2022-09-18T17:15:37.227Z,97901.78
2022-09-18T17:18:05.398Z,97896.63
2022-09-18T17:20:34.596Z,97889.75
2022-09-18T17:23:05.125Z,97882.88
2022-09-18T17:25:33.506Z,97875.97
2022-09-18T17:28:02.087Z,97876.84
2022-09-18T17:30:33.948Z,97875.13
2022-09-18T17:33:03.145Z,97870.81
2022-09-18T17:35:38.794Z,97851.91
2022-09-18T17:38:11.170Z,97852.69
2022-09-18T17:40:43.281Z,97857.88
2022-09-18T17:43:25.137Z,97852.72
2022-09-18T17:46:06.411Z,97832.03
2022-09-18T17:48:37.464Z,97839.75
2022-09-18T17:51:12.082Z,97847.50
2022-09-18T17:53:42.500Z,97845.78
2022-09-18T17:56:13.029Z,97855.22
2022-09-18T17:58:43.606Z,97856.94
2022-09-18T18:01:20.305Z,97859.56
2022-09-18T18:05:27.019Z,97848.38
2022-09-18T18:08:33.386Z,97836.31
2022-09-18T18:11:17.638Z,97830.31
2022-09-18T18:13:56.581Z,97820.03
2022-09-18T18:16:35.525Z,97814.03
2022-09-18T18:19:12.270Z,97795.13
2022-09-18T18:24:42.198Z,97786.56
2022-09-18T18:27:42.118Z,97789.09
2022-09-18T18:30:10.804Z,97774.53
2022-09-18T18:32:43.276Z,97782.28
2022-09-18T18:35:11.553Z,97766.78
2022-09-18T18:37:47.336Z,97766.75
2022-09-18T18:40:15.935Z,97765.84
2022-09-18T18:42:44.618Z,97778.75
2022-09-18T18:45:13.768Z,97775.31
2022-09-18T18:47:48.906Z,97771.03
2022-09-18T18:50:33.054Z,97777.06
2022-09-18T18:53:01.331Z,97756.41
2022-09-18T18:55:30.326Z,97739.22
2022-09-18T18:57:58.497Z,97742.63
2022-09-18T19:00:27.696Z,97734.00
2022-09-18T19:02:56.373Z,97716.81
2022-09-18T19:05:30.597Z,97711.63
2022-09-18T19:08:11.775Z,97713.34
2022-09-18T19:11:25.211Z,97729.56
2022-09-18T19:14:04.544Z,97737.41
2022-09-18T19:16:33.256Z,97746.91
2022-09-18T19:19:06.626Z,97750.38
2022-09-18T19:21:41.254Z,97746.91
2022-09-18T19:24:11.267Z,97747.88
2022-09-18T19:26:41.387Z,97747.88
2022-09-18T19:29:31.986Z,97747.81
2022-09-18T19:32:00.366Z,97723.75
2022-09-18T19:34:28.641Z,97715.97
2022-09-18T19:36:58.249Z,97715.94
2022-09-18T19:39:27.241Z,97715.06
2022-09-18T19:41:57.564Z,97711.66
2022-09-18T19:44:42.224Z,97701.31
2022-09-18T19:47:24.120Z,97680.69
2022-09-18T19:49:55.572Z,97689.28
2022-09-18T19:52:26.100Z,97692.69
2022-09-18T19:54:56.220Z,97692.66
2022-09-18T19:57:32.901Z,97690.94
2022-09-18T20:00:01.596Z,97695.25
2022-09-18T20:02:41.844Z,97683.22
2022-09-18T20:05:16.357Z,97679.78
2022-09-18T20:07:44.736Z,97678.06
2022-09-18T20:10:24.978Z,97667.69
2022-09-18T20:12:54.329Z,97675.47
2022-09-18T20:15:48.817Z,97670.31
2022-09-18T20:18:16.917Z,97647.97
2022-09-18T20:20:52.506Z,97645.38
2022-09-18T20:23:24.264Z,97639.31
2022-09-18T20:26:10.256Z,97632.47
2022-09-18T20:29:15.728Z,97628.13
2022-09-18T20:31:46.171Z,97632.44
2022-09-18T20:35:11.238Z,97626.34
2022-09-18T20:37:52.518Z,97619.44
2022-09-18T20:40:25.169Z,97594.50
2022-09-18T20:42:55.829Z,97600.50
2022-09-18T20:46:07.534Z,97600.38
2022-09-18T20:48:57.611Z,97602.19
2022-09-18T20:51:51.282Z,97589.19
2022-09-18T20:54:23.142Z,97568.59
2022-09-18T20:57:05.867Z,97573.72
2022-09-18T20:59:34.237Z,97580.59
2022-09-18T21:02:08.998Z,97555.63
2022-09-18T21:04:46.567Z,97539.28
2022-09-18T21:07:31.628Z,97472.13
2022-09-18T21:10:03.519Z,97415.47
2022-09-18T21:12:45.998Z,97405.16
2022-09-18T21:15:18.883Z,97407.69
2022-09-18T21:18:03.133Z,97407.63
2022-09-18T21:20:53.510Z,97431.66
2022-09-18T21:26:48.960Z,97422.25
2022-09-18T21:33:58.539Z,97421.44
2022-09-18T21:36:45.651Z,97397.25
2022-09-18T21:39:22.425Z,97416.25
2022-09-18T21:41:55.678Z,97447.19
2022-09-18T21:45:23.563Z,97436.75
2022-09-18T21:47:44.290Z,97412.66
2022-09-18T21:56:44.463Z,97414.34
2022-09-18T21:59:31.990Z,97443.41
2022-09-18T22:03:04.970Z,97452.00
2022-09-18T22:05:59.262Z,97424.50
2022-09-18T22:12:39.553Z,97419.31
2022-09-18T22:39:15.974Z,97372.63
2022-09-18T22:42:18.347Z,97378.69
2022-09-18T22:56:15.268Z,97367.50
2022-09-18T22:58:53.196Z,97349.53
2022-09-18T23:02:23.238Z,97344.25
2022-09-18T23:05:22.599Z,97338.25
2022-09-18T23:09:08.292Z,97319.22
2022-09-18T23:12:53.681Z,97310.44
2022-09-18T23:15:25.636Z,97305.41
2022-09-18T23:17:54.832Z,97295.06
2022-09-18T23:20:25.464Z,97277.88
2022-09-18T23:23:04.176Z,97278.69
2022-09-18T23:26:20.794Z,97288.22
2022-09-18T23:32:23.293Z,97285.59
2022-09-18T23:35:12.152Z,97270.25
2022-09-18T23:37:43.897Z,97284.00
2022-09-18T23:40:51.302Z,97287.44
2022-09-18T23:43:30.227Z,97282.38
2022-09-18T23:46:20.678Z,97280.63
2022-09-18T23:52:23.837Z,97266.91
2022-09-18T23:55:19.863Z,97257.28
2022-09-18T23:58:08.626Z,97257.31
